createdAt,value
2022-11-13T00:01:44.867Z,76440.69
2022-11-13T00:12:05.753Z,76450.81
2022-11-13T00:22:28.925Z,76438.69
2022-11-13T00:32:51.865Z,76442.72
2022-11-13T00:43:12.916Z,76452.84
2022-11-13T00:53:35.898Z,76454.88
2022-11-13T01:03:59.221Z,76438.69
2022-11-13T01:14:19.854Z,76422.47
2022-11-13T01:24:42.927Z,76438.69
2022-11-13T01:35:04.957Z,76426.53
2022-11-13T01:45:59.696Z,76418.44
2022-11-13T01:56:20.545Z,76418.44
2022-11-13T02:07:00.787Z,76418.44
2022-11-13T02:17:29.551Z,76410.34
2022-11-13T02:27:50.949Z,76402.25
2022-11-13T02:38:12.017Z,76408.31
2022-11-13T02:48:32.490Z,76406.28
2022-11-13T02:58:54.147Z,76414.38
2022-11-13T03:09:17.099Z,76418.44
2022-11-13T03:19:42.783Z,76416.41
2022-11-13T03:30:06.621Z,76408.31
2022-11-13T03:40:27.303Z,76410.34
2022-11-13T03:50:51.640Z,76426.53
2022-11-13T04:01:12.046Z,76414.38
2022-11-13T04:11:32.587Z,76430.56
2022-11-13T04:21:53.322Z,76438.69
2022-11-13T04:32:19.247Z,76465.00
2022-11-13T04:42:49.324Z,76442.72
2022-11-13T04:53:14.999Z,76456.91
2022-11-13T05:03:35.905Z,76454.88
2022-11-13T05:14:03.175Z,76456.91
2022-11-13T05:24:27.232Z,76479.16
2022-11-13T05:34:50.471Z,76481.19
2022-11-13T05:45:13.377Z,76487.25
2022-11-13T05:55:34.236Z,76481.19
2022-11-13T06:05:58.558Z,76479.16
2022-11-13T06:16:21.802Z,76462.97
2022-11-13T06:26:42.674Z,76452.84
2022-11-13T06:37:03.470Z,76450.81
2022-11-13T06:47:23.968Z,76450.81
2022-11-13T06:57:44.547Z,76454.88
2022-11-13T07:08:09.562Z,76452.84
2022-11-13T07:18:31.488Z,76462.97
2022-11-13T07:28:53.418Z,76388.06
2022-11-13T07:39:16.499Z,76426.53
2022-11-13T07:49:37.311Z,76432.59
2022-11-13T07:59:57.880Z,76440.69
2022-11-13T08:10:19.598Z,76432.59
2022-11-13T08:20:40.508Z,76442.72
2022-11-13T08:31:01.941Z,76422.47
2022-11-13T08:41:25.147Z,76418.44
2022-11-13T08:51:52.779Z,76394.16
2022-11-13T09:02:16.405Z,76402.25
2022-11-13T09:12:41.504Z,76406.28
2022-11-13T09:23:05.692Z,76408.31
2022-11-13T09:33:29.091Z,76410.34
2022-11-13T09:43:59.264Z,76394.16
2022-11-13T09:54:23.372Z,76392.13
2022-11-13T10:04:58.578Z,76386.03
2022-11-13T10:15:19.885Z,76367.81
2022-11-13T10:25:42.485Z,76353.66
2022-11-13T10:36:15.224Z,76369.84
2022-11-13T10:46:35.782Z,76349.63
2022-11-13T10:57:16.511Z,76339.50
2022-11-13T11:07:41.407Z,76327.34
2022-11-13T11:18:06.119Z,76319.25
2022-11-13T11:28:47.686Z,76321.28
2022-11-13T11:39:28.111Z,76337.47
2022-11-13T11:49:49.666Z,76321.28
2022-11-13T12:00:19.820Z,76307.09
2022-11-13T12:10:48.021Z,76305.09
2022-11-13T12:21:25.073Z,76270.66
2022-11-13T12:32:27.707Z,76260.56
2022-11-13T12:42:49.281Z,76256.50
2022-11-13T12:53:12.136Z,76234.25
2022-11-13T13:03:41.708Z,76226.16
2022-11-13T13:14:22.013Z,76228.16
2022-11-13T13:24:42.597Z,76232.22
2022-11-13T13:35:16.006Z,76179.59
2022-11-13T13:45:49.087Z,76151.25
2022-11-13T13:56:11.821Z,76191.72
2022-11-13T14:06:37.457Z,76228.16
2022-11-13T14:17:01.059Z,76244.34
2022-11-13T14:27:25.583Z,76230.19
2022-11-13T14:37:46.432Z,76230.19
2022-11-13T14:48:28.231Z,76252.47
2022-11-13T14:58:48.801Z,76274.72
2022-11-13T15:09:14.180Z,76250.44
2022-11-13T15:19:37.872Z,76264.59
2022-11-13T15:30:01.494Z,76278.78
2022-11-13T15:40:22.347Z,76288.88
2022-11-13T15:50:42.827Z,76216.03
2022-11-13T16:01:05.662Z,76268.66
2022-11-13T16:11:33.017Z,76294.97
2022-11-13T16:21:56.348Z,76309.13
2022-11-13T16:32:18.991Z,76313.19
2022-11-13T16:42:40.709Z,76319.25
2022-11-13T16:53:03.738Z,76321.28
2022-11-13T17:03:24.459Z,76321.28
2022-11-13T17:13:50.008Z,76329.38
2022-11-13T17:24:10.528Z,76331.41
2022-11-13T17:34:33.745Z,76321.28
2022-11-13T17:44:57.128Z,76317.22
2022-11-13T17:55:20.302Z,76325.31
2022-11-13T18:05:41.237Z,76315.19
2022-11-13T18:16:10.793Z,76309.13
2022-11-13T18:26:32.194Z,76288.88
2022-11-13T18:36:53.862Z,76276.75
2022-11-13T18:47:14.383Z,76262.56
2022-11-13T18:57:34.804Z,76280.78
2022-11-13T19:07:57.936Z,76299.00
2022-11-13T19:18:21.115Z,76319.25
2022-11-13T19:28:47.183Z,76323.31
2022-11-13T19:39:12.564Z,76355.69
2022-11-13T19:49:40.812Z,76357.72
2022-11-13T20:00:01.369Z,76345.56
2022-11-13T20:10:21.953Z,76357.72
2022-11-13T20:20:54.640Z,76363.78
2022-11-13T20:31:21.170Z,76373.91
2022-11-13T20:41:51.109Z,76369.84
2022-11-13T20:52:15.661Z,76396.16
2022-11-13T21:02:36.530Z,76394.16
2022-11-13T21:13:02.279Z,76406.28
2022-11-13T21:23:23.145Z,76414.38
2022-11-13T21:33:47.175Z,76412.34
2022-11-13T21:44:11.158Z,76410.34
2022-11-13T21:54:33.762Z,76422.47
2022-11-13T22:04:55.634Z,76428.56
2022-11-13T22:15:17.018Z,76432.59
2022-11-13T22:25:39.930Z,76438.69
2022-11-13T22:36:07.447Z,76434.63
2022-11-13T22:46:30.232Z,76428.56
2022-11-13T22:56:50.922Z,76438.69
2022-11-13T23:07:11.807Z,76440.69
2022-11-13T23:17:32.294Z,76418.44
2022-11-13T23:27:52.936Z,76428.56
2022-11-13T23:38:13.478Z,76412.34
2022-11-13T23:48:34.704Z,76410.34
2022-11-13T23:58:57.418Z,76394.16
